METAR Data
IDs: Format: Raw Decoded Include TAF

Data at: 1418 UTC 21 Apr 2021

METAR for:KFOD (Fort Dodge Rgnl, IA, US)
Text:KFOD 211356Z AUTO 34008KT 310V020 10SM FEW060 01/M08 A3023 RMK AO2 SLP275 T00061083 FZRANO
Temperature: 0.6°C ( 33°F)
Dewpoint: -8.3°C ( 17°F) [RH = 51%]
Pressure (altimeter):30.23 inches Hg (1023.8 mb) [Sea level pressure: 1027.5 mb]
Winds:from the NNW (340 degrees) at 9 MPH (8 knots; 4.1 m/s)
Visibility:10 or more sm (16+ km)
Ceiling:at least 12,000 feet AGL
Clouds: few clouds at 6000 feet AGL
QC Flag:automated observation with no human augmentation